createdAt,value
2023-05-16T16:39:49.889Z,17.44
2023-05-16T16:44:54.173Z,18.04
2023-05-16T16:49:58.506Z,18.16
2023-05-16T16:55:05.597Z,18.07
2023-05-16T17:00:13.608Z,18.11
2023-05-16T17:05:17.731Z,18.27
2023-05-16T17:10:23.806Z,18.48
2023-05-16T17:15:28.505Z,18.44
2023-05-16T17:20:33.221Z,18.27
2023-05-16T17:25:39.508Z,18.06
2023-05-16T17:30:43.519Z,17.91
2023-05-16T17:35:47.831Z,17.83
2023-05-16T17:40:53.777Z,17.56
2023-05-16T17:45:58.061Z,17.22
2023-05-16T17:51:02.881Z,16.98
2023-05-16T17:56:09.523Z,16.78
2023-05-16T18:01:13.690Z,16.64
2023-05-16T18:06:17.889Z,16.53
2023-05-16T18:11:24.279Z,16.55
2023-05-16T18:16:28.381Z,16.63
2023-05-16T18:21:32.586Z,16.61
2023-05-16T18:26:38.757Z,16.61
2023-05-16T18:31:45.020Z,16.59
2023-05-16T18:36:49.152Z,16.47
2023-05-16T18:41:55.094Z,16.42
2023-05-16T18:46:59.211Z,16.38
2023-05-16T18:52:03.176Z,16.33
2023-05-16T18:57:09.305Z,16.30
2023-05-16T19:02:16.043Z,16.23
2023-05-16T19:07:20.229Z,16.13
2023-05-16T19:12:26.532Z,16.04
2023-05-16T19:17:30.931Z,15.95
2023-05-16T19:22:35.045Z,15.85
2023-05-16T19:27:42.766Z,15.80
2023-05-16T19:32:46.763Z,15.72
2023-05-16T19:37:51.191Z,15.70
2023-05-16T19:42:57.182Z,15.68
2023-05-16T19:48:01.298Z,15.63
2023-05-16T19:53:05.546Z,15.62
2023-05-16T19:58:11.613Z,15.63
2023-05-16T20:03:15.968Z,15.62
2023-05-16T20:08:20.221Z,15.64
2023-05-16T20:13:26.388Z,15.64
2023-05-16T20:18:30.590Z,15.61
2023-05-16T20:23:35.654Z,15.52
2023-05-16T20:28:41.636Z,15.44
2023-05-16T20:33:46.302Z,15.38
